Smithfield - 24 Hour Table
Date & TimeSolar
Radiation
(W/m²)
Wind
Speed
(mph)
Wind
Direction
(degrees)
Air
Temperature
(°F)
Relative
Humidity
(%)
Precipitation
(inches)
2018/06/20 07:00 165 0.1 22 52.4 69 0.00
2018/06/20 06:00 15 1.3 65 49.7 82 0.00
2018/06/20 05:00 1 2.9 32 50.8 77 0.00
2018/06/20 04:00 0 3.9 46 52.1 76 0.00
2018/06/20 03:00 0 3.6 42 52.2 72 0.00
2018/06/20 02:00 0 3.2 48 53.9 74 0.00
2018/06/20 01:00 0 2.8 82 55.7 72 0.00
2018/06/20 00:00 0 2.9 72 57.5 65 0.00
2018/06/19 23:00 0 3.7 31 58.8 55 0.00
2018/06/19 22:00 0 4.9 41 59.8 58 0.00
2018/06/19 21:00 1 4.1 61 60.8 56 0.00
2018/06/19 20:00 40 2.3 39 66.1 50 0.00
2018/06/19 19:00 135 1.7 7 69.4 43 0.00
2018/06/19 18:00 401 2.9 358 72.1 35 0.00
2018/06/19 17:00 531 3.1 204 70.9 31 0.00
2018/06/19 16:00 570 2.9 199 70.3 44 0.00
2018/06/19 15:00 520 3.0 191 68.7 38 0.00
2018/06/19 14:00 601 3.7 287 68.6 43 0.00
2018/06/19 13:00 677 4.4 253 67.1 41 0.00
2018/06/19 12:00 823 4.0 262 68.0 42 0.00
2018/06/19 11:00 876 3.9 260 64.9 45 0.00
2018/06/19 10:00 750 3.4 254 62.1 53 0.00
2018/06/19 09:00 530 2.5 296 58.1 63 0.00
2018/06/19 08:00 371 2.8 211 54.3 72 0.00